Allison, North Carolina
Current Conditions -  °F | °C
As of 8:53 AM on Thursday 18 Dec 2014 (Local Time) from KDAN Reporting Station
Clear Clear  
Wind Chill: 39°   Ceiling: Unl
Heat Index: 39°   Visibility: 10mi
Dew Point: 26°   Wind: 3mph
Humidity: 60%   Direction: 280°W
Pressure: 30.19"   Gusts: NA
Location:  36.4355°N, 79.5464°W
Report Text: KDAN 181353Z AUTO 28003KT 10SM CLR 04/M03 A3019 RMK AO2 SLP218 T00391033
Loading
Personal Weather Stations






























Interactive Weather Map New forecast layout! Learn more

10-Day Weather Forecast

Advertisements
Track Severe Weather on mobile